Time;durP1;ratioP1;P1;durP2;ratioP2;P2;SDS_P1;SDS_P2;PMS_P1;PMS_P2;Temp;Humidity;BMP_temperature;BMP_pressure;BME280_temperature;BME280_humidity;BME280_pressure;Samples;Min_cycle;Max_cycle;Signal;HPM_P1;HPM_P2
2022/07/11 00:01:51;;;;;;;1.60;0.60;;;15.90;99.90;;;;;;4879696;29;20132;-66
2022/07/11 00:04:16;;;;;;;3.58;0.90;;;15.90;99.90;;;;;;4878792;29;20517;-66
2022/07/11 00:06:42;;;;;;;2.83;0.60;;;15.80;99.90;;;;;;4879818;29;20088;-66
2022/07/11 00:09:08;;;;;;;2.65;0.90;;;15.80;99.90;;;;;;4880105;29;20074;-66
2022/07/11 00:11:34;;;;;;;1.55;0.70;;;15.80;99.90;;;;;;4879734;29;20496;-66
2022/07/11 00:13:59;;;;;;;1.40;0.70;;;15.80;99.90;;;;;;4880058;29;20063;-66
2022/07/11 00:16:25;;;;;;;0.93;0.70;;;15.80;99.90;;;;;;4879542;29;20064;-66
2022/07/11 00:18:51;;;;;;;0.98;0.75;;;15.70;99.90;;;;;;4879258;29;20153;-66
2022/07/11 00:21:16;;;;;;;2.30;0.80;;;15.70;99.90;;;;;;4878729;29;20049;-66
2022/07/11 00:23:43;;;;;;;2.20;0.60;;;15.70;99.90;;;;;;4879522;29;20135;-66
2022/07/11 00:26:09;;;;;;;1.02;0.55;;;15.70;99.90;;;;;;4880154;29;20049;-66
2022/07/11 00:28:34;;;;;;;2.20;0.80;;;15.70;99.90;;;;;;4878642;29;20188;-66
2022/07/11 00:31:00;;;;;;;3.47;0.90;;;15.70;99.90;;;;;;4880331;29;20037;-66
2022/07/11 00:33:26;;;;;;;1.58;0.63;;;15.60;99.90;;;;;;4879539;29;20053;-66
2022/07/11 00:35:51;;;;;;;1.48;0.73;;;15.70;99.90;;;;;;4879229;29;20136;-66
2022/07/11 00:38:17;;;;;;;3.30;0.82;;;15.70;99.90;;;;;;4863870;29;20052;-66
2022/07/11 00:40:43;;;;;;;2.03;0.80;;;15.70;99.90;;;;;;4878485;29;20193;-66
2022/07/11 00:43:08;;;;;;;3.80;1.92;;;15.70;99.90;;;;;;4878470;29;20056;-66
2022/07/11 00:45:34;;;;;;;1.67;0.90;;;15.60;99.90;;;;;;4879662;29;20061;-66
2022/07/11 00:48:00;;;;;;;2.47;0.90;;;15.70;99.90;;;;;;4879357;29;20045;-66
2022/07/11 00:50:26;;;;;;;2.15;1.00;;;15.70;99.90;;;;;;4879320;29;20533;-66
2022/07/11 00:52:54;;;;;;;2.08;1.00;;;15.70;99.90;;;;;;4878107;29;20053;-66
2022/07/11 00:55:21;;;;;;;4.40;1.05;;;15.60;99.90;;;;;;4879315;29;20113;-66
2022/07/11 00:57:47;;;;;;;1.63;0.98;;;15.70;99.90;;;;;;4879088;29;20494;-66
2022/07/11 01:00:13;;;;;;;1.70;1.00;;;15.60;99.90;;;;;;4879172;29;20056;-66
2022/07/11 01:02:39;;;;;;;2.05;0.93;;;15.60;99.90;;;;;;4882220;29;20049;-66
2022/07/11 01:05:05;;;;;;;2.65;0.90;;;15.60;99.90;;;;;;4883271;29;20048;-66
2022/07/11 01:07:32;;;;;;;1.83;0.85;;;15.50;99.90;;;;;;4881556;29;20242;-66
2022/07/11 01:09:58;;;;;;;2.97;1.10;;;15.50;99.90;;;;;;4881850;29;20056;-66
2022/07/11 01:12:24;;;;;;;1.98;1.02;;;15.60;99.90;;;;;;4882444;29;20053;-66
2022/07/11 01:14:54;;;;;;;2.30;0.90;;;15.50;99.90;;;;;;4881482;29;20108;-66
2022/07/11 01:17:20;;;;;;;2.55;1.08;;;15.50;99.90;;;;;;4882461;29;20049;-66
2022/07/11 01:19:46;;;;;;;2.15;1.10;;;15.50;99.90;;;;;;4882545;29;20049;-66
2022/07/11 01:22:14;;;;;;;4.38;1.20;;;15.50;99.90;;;;;;4882303;29;20108;-66
2022/07/11 01:24:42;;;;;;;1.70;1.10;;;15.40;99.90;;;;;;4882205;29;20136;-66
2022/07/11 01:27:08;;;;;;;3.63;1.27;;;15.40;99.90;;;;;;4882210;29;20052;-66
2022/07/11 01:29:34;;;;;;;4.63;1.58;;;15.40;99.90;;;;;;4882111;29;20080;-66
2022/07/11 01:32:00;;;;;;;3.00;1.38;;;15.40;99.90;;;;;;4881990;29;20109;-66
2022/07/11 01:34:26;;;;;;;3.28;1.70;;;15.30;99.90;;;;;;4882027;29;20120;-66
2022/07/11 01:36:51;;;;;;;2.88;1.40;;;15.30;99.90;;;;;;4882271;29;20196;-66
2022/07/11 01:39:17;;;;;;;4.20;1.60;;;15.30;99.90;;;;;;4881574;29;20045;-66
2022/07/11 01:41:43;;;;;;;3.58;1.30;;;15.30;99.90;;;;;;4882373;29;20049;-66
2022/07/11 01:44:09;;;;;;;4.47;1.30;;;15.30;99.90;;;;;;4881903;29;20055;-66
2022/07/11 01:46:34;;;;;;;2.85;1.60;;;15.30;99.90;;;;;;4881173;29;20045;-66
2022/07/11 01:49:00;;;;;;;2.00;1.02;;;15.30;99.90;;;;;;4880496;29;20084;-66
2022/07/11 01:51:28;;;;;;;2.42;1.40;;;15.30;99.90;;;;;;4881719;29;20143;-66
2022/07/11 01:53:55;;;;;;;3.03;1.10;;;15.20;99.90;;;;;;4881942;29;20053;-66
2022/07/11 01:56:22;;;;;;;2.05;1.30;;;15.20;99.90;;;;;;4881950;29;20057;-66
2022/07/11 01:58:48;;;;;;;2.10;1.15;;;15.20;99.90;;;;;;4881520;29;20060;-66
2022/07/11 02:01:14;;;;;;;3.05;1.25;;;15.20;99.90;;;;;;4881474;29;20053;-66
2022/07/11 02:03:40;;;;;;;4.47;1.60;;;15.20;99.90;;;;;;4882304;29;20049;-66
2022/07/11 02:06:06;;;;;;;6.00;1.60;;;15.20;99.90;;;;;;4882217;29;20497;-66
2022/07/11 02:08:32;;;;;;;3.17;1.70;;;15.20;99.90;;;;;;4881236;29;20061;-66
2022/07/11 02:10:57;;;;;;;1.70;1.25;;;15.20;99.90;;;;;;4881669;29;20125;-66
2022/07/11 02:13:23;;;;;;;3.85;1.42;;;15.20;99.90;;;;;;4880738;29;20466;-66
2022/07/11 02:15:50;;;;;;;3.65;1.30;;;15.20;99.90;;;;;;4881269;29;20049;-66
2022/07/11 02:18:17;;;;;;;4.50;1.65;;;15.20;99.90;;;;;;4881154;29;20128;-66
2022/07/11 02:20:45;;;;;;;4.35;1.55;;;15.20;99.90;;;;;;4880309;29;20053;-66
2022/07/11 02:23:12;;;;;;;2.83;1.98;;;15.20;99.90;;;;;;4881162;29;20056;-66
2022/07/11 02:25:38;;;;;;;4.25;1.60;;;15.20;99.90;;;;;;4881125;29;20085;-66
2022/07/11 02:28:08;;;;;;;4.32;1.67;;;15.20;99.90;;;;;;4881086;29;20175;-66
2022/07/11 02:30:38;;;;;;;4.88;1.80;;;15.20;99.90;;;;;;4881327;29;20120;-66
2022/07/11 02:33:04;;;;;;;5.22;1.60;;;15.20;99.90;;;;;;4881030;29;20053;-66
2022/07/11 02:35:31;;;;;;;4.50;2.00;;;15.20;99.90;;;;;;4879510;29;20078;-66
2022/07/11 02:37:56;;;;;;;5.30;2.47;;;15.20;99.90;;;;;;4880884;29;20132;-66
2022/07/11 02:40:22;;;;;;;3.13;1.98;;;15.20;99.90;;;;;;4880641;29;20184;-66
2022/07/11 02:42:48;;;;;;;6.50;2.25;;;15.20;99.90;;;;;;4880893;29;20064;-66
2022/07/11 02:45:13;;;;;;;4.95;2.45;;;15.20;99.90;;;;;;4881272;29;20045;-66
2022/07/11 02:47:40;;;;;;;4.07;2.00;;;15.20;99.90;;;;;;4880721;29;20438;-66
2022/07/11 02:50:08;;;;;;;4.88;3.20;;;15.20;99.90;;;;;;4880715;29;20041;-66
2022/07/11 02:52:34;;;;;;;5.55;2.50;;;15.20;99.90;;;;;;4880734;29;20481;-66
2022/07/11 02:55:00;;;;;;;7.05;2.40;;;15.20;99.90;;;;;;4880609;29;20109;-66
2022/07/11 02:57:26;;;;;;;3.83;2.30;;;15.20;99.90;;;;;;4881055;29;20068;-66
2022/07/11 02:59:51;;;;;;;5.47;3.00;;;15.20;99.90;;;;;;4879253;29;20057;-66
2022/07/11 03:02:17;;;;;;;3.55;2.20;;;15.20;99.90;;;;;;4879784;29;20095;-66
2022/07/11 03:04:43;;;;;;;4.53;2.05;;;15.20;99.90;;;;;;4880215;29;20405;-66
2022/07/11 03:07:08;;;;;;;5.32;2.33;;;15.20;99.90;;;;;;4880436;29;20045;-66
2022/07/11 03:09:34;;;;;;;3.88;2.00;;;15.20;99.90;;;;;;4881137;29;20113;-66
2022/07/11 03:12:01;;;;;;;2.63;1.90;;;15.20;99.90;;;;;;4880470;29;20485;-66
2022/07/11 03:14:27;;;;;;;5.00;2.28;;;15.20;99.90;;;;;;4880355;29;20045;-66
2022/07/11 03:16:52;;;;;;;1.95;1.50;;;15.20;99.90;;;;;;4880685;29;20048;-66
2022/07/11 03:19:18;;;;;;;3.70;1.88;;;15.20;99.90;;;;;;4880324;29;20394;-66
2022/07/11 03:21:44;;;;;;;2.78;1.58;;;15.20;99.90;;;;;;4880316;29;20426;-66
2022/07/11 03:24:09;;;;;;;3.95;1.55;;;15.20;99.90;;;;;;4878794;29;20086;-66
2022/07/11 03:26:35;;;;;;;3.22;1.73;;;15.30;99.90;;;;;;4879106;29;20056;-66
2022/07/11 03:29:01;;;;;;;4.07;1.65;;;15.30;99.90;;;;;;4880125;29;20049;-66
2022/07/11 03:31:26;;;;;;;2.78;1.23;;;15.30;99.90;;;;;;4879955;29;20053;-66
2022/07/11 03:33:52;;;;;;;4.38;1.52;;;15.20;99.90;;;;;;4879988;29;20048;-66
2022/07/11 03:36:18;;;;;;;2.08;1.17;;;15.20;99.90;;;;;;4879092;29;20053;-66
2022/07/11 03:38:43;;;;;;;4.03;1.67;;;15.20;99.90;;;;;;4878854;29;20427;-66
2022/07/11 03:41:09;;;;;;;1.70;1.20;;;15.30;99.90;;;;;;4879629;29;20101;-66
2022/07/11 03:43:35;;;;;;;3.17;1.80;;;15.30;99.90;;;;;;4879843;29;20052;-67
2022/07/11 03:46:00;;;;;;;3.53;1.33;;;15.30;99.90;;;;;;4879212;29;20055;-66
2022/07/11 03:48:26;;;;;;;2.00;1.27;;;15.30;99.90;;;;;;4879797;29;20447;-66
2022/07/11 03:50:52;;;;;;;3.20;1.52;;;15.30;99.90;;;;;;4879784;29;20103;-67
2022/07/11 03:53:18;;;;;;;2.80;1.35;;;15.30;99.90;;;;;;4879823;29;20053;-66
2022/07/11 03:55:43;;;;;;;2.60;1.50;;;15.30;99.90;;;;;;4863139;29;20049;-66
2022/07/11 03:58:09;;;;;;;4.30;1.73;;;15.30;99.90;;;;;;4879729;29;20057;-66
2022/07/11 04:00:35;;;;;;;2.33;1.42;;;15.30;99.90;;;;;;4879432;29;20092;-66
2022/07/11 04:03:01;;;;;;;2.92;1.60;;;15.30;99.90;;;;;;4879429;29;20049;-66
2022/07/11 04:05:27;;;;;;;1.95;1.20;;;15.30;99.90;;;;;;4879670;29;20537;-66
2022/07/11 04:07:52;;;;;;;2.50;1.50;;;15.30;99.90;;;;;;4863364;29;20087;-66
2022/07/11 04:10:18;;;;;;;3.28;1.30;;;15.30;99.90;;;;;;4879688;29;20045;-66
2022/07/11 04:12:44;;;;;;;1.77;1.17;;;15.30;99.90;;;;;;4879341;29;20056;-66
2022/07/11 04:15:11;;;;;;;2.30;1.25;;;15.30;99.90;;;;;;4880200;29;20055;-66
2022/07/11 04:17:37;;;;;;;3.95;1.50;;;15.30;99.90;;;;;;4880432;29;20053;-66
2022/07/11 04:20:04;;;;;;;4.05;1.40;;;15.30;99.90;;;;;;4879610;29;20089;-66
2022/07/11 04:22:30;;;;;;;2.38;1.52;;;15.30;99.90;;;;;;4880111;29;20101;-66
2022/07/11 04:24:55;;;;;;;3.42;1.20;;;15.30;99.90;;;;;;4878825;29;20057;-66
2022/07/11 04:27:21;;;;;;;4.05;1.50;;;15.40;99.90;;;;;;4879500;29;20057;-66
2022/07/11 04:29:47;;;;;;;3.20;1.10;;;15.30;99.90;;;;;;4879488;29;20049;-66
2022/07/11 04:32:13;;;;;;;2.20;1.20;;;15.30;99.90;;;;;;4879165;29;20056;-66
2022/07/11 04:34:38;;;;;;;2.50;0.90;;;15.40;99.90;;;;;;4879466;29;20102;-66
2022/07/11 04:37:04;;;;;;;1.63;0.90;;;15.40;99.90;;;;;;4882346;29;20581;-66
2022/07/11 04:39:32;;;;;;;2.92;0.73;;;15.40;99.90;;;;;;4882933;29;20052;-67
2022/07/11 04:41:59;;;;;;;2.22;0.70;;;15.30;99.90;;;;;;4882223;29;20057;-66
2022/07/11 04:44:26;;;;;;;1.45;0.70;;;15.30;99.90;;;;;;4881736;29;20061;-66
2022/07/11 04:46:51;;;;;;;2.75;0.50;;;15.40;99.90;;;;;;4881879;29;20096;-66
2022/07/11 04:49:18;;;;;;;0.93;0.50;;;15.30;99.90;;;;;;4883358;29;20426;-67
2022/07/11 04:51:44;;;;;;;1.25;0.60;;;15.40;99.90;;;;;;4882303;29;20378;-66
2022/07/11 04:54:10;;;;;;;2.30;0.50;;;15.30;99.90;;;;;;4881800;29;20062;-67
2022/07/11 04:56:36;;;;;;;1.27;0.50;;;15.30;99.90;;;;;;4881668;29;20076;-66
2022/07/11 04:59:03;;;;;;;1.48;0.50;;;15.30;99.90;;;;;;4882536;29;20486;-66
2022/07/11 05:01:29;;;;;;;0.77;0.40;;;15.30;99.90;;;;;;4882273;29;20553;-66
2022/07/11 05:03:56;;;;;;;1.58;0.47;;;15.40;99.90;;;;;;4882569;29;20045;-66
2022/07/11 05:06:21;;;;;;;1.58;0.40;;;15.40;99.90;;;;;;4881369;29;20140;-66
2022/07/11 05:08:47;;;;;;;0.47;0.30;;;15.40;99.90;;;;;;4882197;29;20196;-66
2022/07/11 05:11:13;;;;;;;0.77;0.30;;;15.40;99.90;;;;;;4882487;29;20052;-66
2022/07/11 05:13:40;;;;;;;1.70;0.20;;;15.40;99.90;;;;;;4882347;29;20513;-66
2022/07/11 05:16:06;;;;;;;1.77;0.30;;;15.50;99.90;;;;;;4882456;29;20049;-66
2022/07/11 05:18:31;;;;;;;1.45;0.30;;;15.40;99.90;;;;;;4882378;29;20136;-66
2022/07/11 05:20:57;;;;;;;0.70;0.30;;;15.50;99.90;;;;;;4881304;29;20120;-66
2022/07/11 05:23:23;;;;;;;1.13;0.30;;;15.50;99.90;;;;;;4882328;29;20105;-66
2022/07/11 05:25:49;;;;;;;1.20;0.40;;;15.50;99.90;;;;;;4882886;29;20462;-66
2022/07/11 05:28:14;;;;;;;2.60;0.20;;;15.50;99.90;;;;;;4881332;29;20482;-66
2022/07/11 05:30:40;;;;;;;0.63;0.30;;;15.50;99.90;;;;;;4881243;29;20144;-66
2022/07/11 05:33:06;;;;;;;1.13;0.30;;;15.50;99.90;;;;;;4882580;29;20048;-66
2022/07/11 05:35:32;;;;;;;1.77;0.30;;;15.50;99.90;;;;;;4897048;29;20379;-67
2022/07/11 05:37:57;;;;;;;0.75;0.30;;;15.60;99.90;;;;;;4880852;29;20055;-66
2022/07/11 05:40:23;;;;;;;1.67;0.30;;;15.70;99.90;;;;;;4881675;29;20049;-66
2022/07/11 05:42:49;;;;;;;8.57;1.00;;;15.70;99.90;;;;;;4881925;29;20060;-67
2022/07/11 05:45:14;;;;;;;1.10;0.30;;;15.80;99.90;;;;;;4881863;29;20049;-66
2022/07/11 05:47:40;;;;;;;1.27;0.20;;;15.80;99.90;;;;;;4880612;29;20522;-66
2022/07/11 05:50:06;;;;;;;1.05;0.30;;;15.80;99.90;;;;;;4881584;29;20474;-66
2022/07/11 05:52:32;;;;;;;0.73;0.30;;;15.90;99.90;;;;;;4881349;29;20498;-66
2022/07/11 05:54:58;;;;;;;2.45;0.65;;;15.90;99.90;;;;;;4881366;29;20065;-66
2022/07/11 05:57:24;;;;;;;2.45;0.22;;;15.90;99.90;;;;;;4882309;29;20522;-66
2022/07/11 05:59:50;;;;;;;0.52;0.10;;;15.90;99.90;;;;;;4881521;29;20088;-66
2022/07/11 06:02:17;;;;;;;0.63;0.20;;;15.90;99.90;;;;;;4881941;29;20136;-66
2022/07/11 06:04:44;;;;;;;0.85;0.20;;;15.90;99.90;;;;;;4880550;29;20049;-66
2022/07/11 06:07:10;;;;;;;0.90;0.30;;;15.90;99.90;;;;;;4882252;29;20382;-66
2022/07/11 06:09:36;;;;;;;1.35;0.20;;;15.90;99.90;;;;;;4881463;29;20048;-66
2022/07/11 06:12:02;;;;;;;3.50;0.25;;;16.00;99.90;;;;;;4880447;29;20057;-66
2022/07/11 06:14:28;;;;;;;1.73;0.10;;;16.00;99.90;;;;;;4881366;29;20118;-66
2022/07/11 06:16:54;;;;;;;1.60;0.30;;;16.00;99.90;;;;;;4881302;29;20049;-66
2022/07/11 06:19:20;;;;;;;0.80;0.17;;;16.10;99.90;;;;;;4880825;29;20113;-65
2022/07/11 06:21:46;;;;;;;1.38;0.30;;;16.10;99.90;;;;;;4881229;29;20509;-66
2022/07/11 06:24:11;;;;;;;0.32;0.10;;;16.10;99.90;;;;;;4881916;29;20048;-66
2022/07/11 06:26:37;;;;;;;2.20;0.22;;;16.10;99.90;;;;;;4881146;29;20105;-66
2022/07/11 06:29:03;;;;;;;1.33;0.30;;;16.10;99.90;;;;;;4881056;29;20049;-66
2022/07/11 06:31:29;;;;;;;0.35;0.10;;;16.10;99.90;;;;;;4880925;29;20051;-66
2022/07/11 06:33:56;;;;;;;0.65;0.10;;;16.20;99.90;;;;;;4881721;29;20049;-66
2022/07/11 06:36:24;;;;;;;0.77;0.10;;;16.20;99.90;;;;;;4880720;29;20064;-66
2022/07/11 06:38:51;;;;;;;1.13;0.10;;;16.30;99.90;;;;;;4880770;29;20049;-66
2022/07/11 06:41:17;;;;;;;0.30;0.10;;;16.40;99.90;;;;;;4880863;29;20083;-66
2022/07/11 06:43:43;;;;;;;0.90;0.08;;;16.50;99.90;;;;;;4881611;29;20053;-67
2022/07/11 06:46:08;;;;;;;0.38;0.00;;;16.50;99.90;;;;;;4880785;29;20056;-66
2022/07/11 06:48:35;;;;;;;0.20;0.10;;;16.50;99.90;;;;;;4880787;29;20045;-66
2022/07/11 06:51:00;;;;;;;1.27;0.30;;;16.50;99.90;;;;;;4880831;29;20053;-66
2022/07/11 06:53:26;;;;;;;0.10;0.10;;;16.50;99.90;;;;;;4879800;29;20128;-66
2022/07/11 06:55:52;;;;;;;0.38;0.10;;;16.50;99.90;;;;;;4880694;29;20446;-66
2022/07/11 06:58:33;;;;;;;0.25;0.00;;;16.50;99.90;;;;;;4880373;29;20513;-66
2022/07/11 07:01:04;;;;;;;0.10;0.00;;;16.50;99.90;;;;;;4881420;29;20106;-68
2022/07/11 07:03:32;;;;;;;0.32;0.10;;;16.60;99.90;;;;;;4880597;29;20104;-67
2022/07/11 07:05:58;;;;;;;0.10;0.10;;;16.50;99.90;;;;;;4880485;29;20553;-66
2022/07/11 07:08:29;;;;;;;0.10;0.08;;;16.60;99.90;;;;;;4880480;29;20057;-66
2022/07/11 07:10:55;;;;;;;0.20;0.08;;;16.60;99.90;;;;;;4879714;29;20130;-66
2022/07/11 07:13:25;;;;;;;0.10;0.00;;;16.70;99.90;;;;;;4880313;29;20053;-66
2022/07/11 07:15:54;;;;;;;0.28;0.00;;;16.70;99.90;;;;;;4880305;29;20057;-66
2022/07/11 07:18:20;;;;;;;0.10;0.00;;;16.70;99.90;;;;;;4880200;29;20049;-66
2022/07/11 07:20:47;;;;;;;1.40;0.08;;;16.80;99.90;;;;;;4880207;29;20053;-66
2022/07/11 07:23:13;;;;;;;0.20;0.00;;;16.80;99.90;;;;;;4880644;29;20056;-67
2022/07/11 07:25:39;;;;;;;0.00;0.00;;;16.80;99.90;;;;;;4880099;29;20447;-66
2022/07/11 07:28:05;;;;;;;0.20;0.10;;;16.80;99.90;;;;;;4880128;29;20132;-66
2022/07/11 07:30:32;;;;;;;0.15;0.05;;;16.80;99.90;;;;;;4880087;29;20044;-66
2022/07/11 07:32:59;;;;;;;0.50;0.20;;;16.80;99.90;;;;;;4880298;29;20478;-66
2022/07/11 07:35:25;;;;;;;0.10;0.00;;;16.80;99.90;;;;;;4879172;29;20049;-66
2022/07/11 07:37:51;;;;;;;0.20;0.10;;;16.80;99.90;;;;;;4880035;29;20235;-66
2022/07/11 07:40:16;;;;;;;0.20;0.10;;;16.80;99.90;;;;;;4880013;29;20041;-66
2022/07/11 07:42:42;;;;;;;0.10;0.10;;;16.80;99.90;;;;;;4880542;29;20112;-66
2022/07/11 07:45:08;;;;;;;0.43;0.17;;;16.80;99.90;;;;;;4879383;29;20049;-66
2022/07/11 07:47:36;;;;;;;0.90;0.15;;;16.80;99.90;;;;;;4879029;29;20049;-66
2022/07/11 07:50:02;;;;;;;0.95;0.10;;;16.80;99.90;;;;;;4880009;29;20052;-66
2022/07/11 07:52:28;;;;;;;0.43;0.17;;;16.80;99.90;;;;;;4880222;29;20420;-66
2022/07/11 07:54:54;;;;;;;0.55;0.10;;;16.80;99.90;;;;;;4880206;29;20052;-65
2022/07/11 07:57:19;;;;;;;0.43;0.10;;;16.80;99.90;;;;;;4879836;29;20057;-66
2022/07/11 07:59:45;;;;;;;0.10;0.10;;;16.80;99.90;;;;;;4880326;29;20049;-66
2022/07/11 08:02:11;;;;;;;1.05;0.10;;;16.70;99.90;;;;;;4880411;29;20055;-66
2022/07/11 08:04:36;;;;;;;0.43;0.20;;;16.70;99.90;;;;;;4879617;29;20037;-67
2022/07/11 08:07:02;;;;;;;0.45;0.20;;;16.80;99.90;;;;;;4879881;29;20049;-66
2022/07/11 08:09:28;;;;;;;0.52;0.10;;;16.70;99.90;;;;;;4879465;29;20056;-65
2022/07/11 08:11:54;;;;;;;1.83;0.30;;;16.70;99.90;;;;;;4883567;29;20490;-66
2022/07/11 08:14:21;;;;;;;0.30;0.10;;;16.80;99.90;;;;;;4884104;29;20101;-66
2022/07/11 08:16:47;;;;;;;0.20;0.13;;;16.80;99.90;;;;;;4883475;29;20097;-66
2022/07/11 08:19:13;;;;;;;0.68;0.10;;;16.80;99.90;;;;;;4882420;29;20092;-66
2022/07/11 08:21:39;;;;;;;1.13;0.10;;;16.80;99.90;;;;;;4883396;29;20095;-66
2022/07/11 08:24:05;;;;;;;0.32;0.10;;;16.90;99.90;;;;;;4882506;29;20108;-66
2022/07/11 08:26:31;;;;;;;1.05;0.10;;;17.00;99.90;;;;;;4882149;29;20057;-66
2022/07/11 08:28:57;;;;;;;0.20;0.10;;;17.00;99.90;;;;;;4883348;29;20063;-66
2022/07/11 08:31:24;;;;;;;0.30;0.15;;;17.10;99.90;;;;;;4883143;29;20179;-66
2022/07/11 08:33:51;;;;;;;0.75;0.10;;;17.10;99.90;;;;;;4882290;29;20124;-66
2022/07/11 08:36:17;;;;;;;0.82;0.10;;;17.10;99.90;;;;;;4883187;29;20053;-66
2022/07/11 08:38:46;;;;;;;2.10;0.20;;;17.20;99.90;;;;;;4883022;29;20049;-66
2022/07/11 08:41:14;;;;;;;1.15;0.10;;;17.20;99.90;;;;;;4883057;29;20088;-66
2022/07/11 08:43:41;;;;;;;0.28;0.10;;;17.20;99.90;;;;;;4883048;29;20148;-66
2022/07/11 08:46:09;;;;;;;0.50;0.20;;;17.20;99.90;;;;;;4883007;29;20057;-67
2022/07/11 08:48:38;;;;;;;0.40;0.10;;;17.30;99.90;;;;;;4883697;29;20084;-66
2022/07/11 08:51:07;;;;;;;0.38;0.30;;;17.30;99.90;;;;;;4882888;29;20051;-66
2022/07/11 08:53:39;;;;;;;0.25;0.10;;;17.30;99.90;;;;;;4882829;29;20049;-66
2022/07/11 08:56:09;;;;;;;0.30;0.10;;;17.30;99.90;;;;;;4881625;29;20516;-66
2022/07/11 08:58:37;;;;;;;0.65;0.20;;;17.20;99.90;;;;;;4881975;29;20131;-66
2022/07/11 09:01:03;;;;;;;0.30;0.10;;;17.30;99.90;;;;;;4882627;29;20053;-67
2022/07/11 09:03:29;;;;;;;1.17;0.10;;;17.30;99.90;;;;;;4883120;29;20064;-66
2022/07/11 09:05:55;;;;;;;1.20;0.10;;;17.40;99.90;;;;;;4882732;29;20045;-66
2022/07/11 09:08:22;;;;;;;1.20;0.10;;;17.40;99.90;;;;;;4881666;29;20096;-66
2022/07/11 09:10:48;;;;;;;0.20;0.10;;;17.40;99.90;;;;;;4881370;29;20482;-66
2022/07/11 09:13:16;;;;;;;0.75;0.10;;;17.40;99.90;;;;;;4883062;29;20108;-66
2022/07/11 09:15:45;;;;;;;0.25;0.20;;;17.40;99.90;;;;;;4882416;29;20103;-66
2022/07/11 09:18:30;;;;;;;0.52;0.10;;;17.40;99.90;;;;;;4882381;29;20149;-66
2022/07/11 09:26:43;;;;;;;0.13;0.10;;;17.40;99.90;;;;;;4882188;29;20470;-66
2022/07/11 09:29:19;;;;;;;0.15;0.10;;;17.40;99.90;;;;;;4881261;29;20057;-66
2022/07/11 09:31:46;;;;;;;0.10;0.10;;;17.40;99.90;;;;;;4882028;29;20057;-66
2022/07/11 09:34:14;;;;;;;0.32;0.03;;;17.50;99.90;;;;;;4881501;29;20068;-66
2022/07/11 09:36:45;;;;;;;0.30;0.10;;;17.40;99.90;;;;;;4881626;29;20053;-64
2022/07/11 09:39:16;;;;;;;0.20;0.00;;;17.50;99.90;;;;;;4881525;29;20362;-65
2022/07/11 09:41:43;;;;;;;0.10;0.00;;;17.50;99.90;;;;;;4896295;29;20052;-66
2022/07/11 09:44:15;;;;;;;0.43;0.10;;;17.50;99.90;;;;;;4881761;29;20097;-66
2022/07/11 09:46:43;;;;;;;0.60;0.10;;;17.50;99.90;;;;;;4881857;29;20060;-65
2022/07/11 09:49:09;;;;;;;0.57;0.10;;;17.50;99.90;;;;;;4880770;29;20124;-67
2022/07/11 09:51:37;;;;;;;0.15;0.08;;;17.50;99.90;;;;;;4880441;29;20059;-67
2022/07/11 09:54:06;;;;;;;0.10;0.10;;;17.40;99.90;;;;;;4880970;29;20148;-66
2022/07/11 09:56:34;;;;;;;0.30;0.10;;;17.50;99.90;;;;;;4880396;29;20065;-71
2022/07/11 09:59:04;;;;;;;0.52;0.10;;;17.40;99.90;;;;;;4880882;29;20397;-66
2022/07/11 10:01:31;;;;;;;1.52;0.20;;;17.40;99.90;;;;;;4880706;29;20056;-70
2022/07/11 10:03:58;;;;;;;1.13;0.20;;;17.40;99.90;;;;;;4880714;29;20056;-65
2022/07/11 10:06:24;;;;;;;1.75;0.10;;;17.30;99.90;;;;;;4880470;29;20088;-67
2022/07/11 10:08:54;;;;;;;0.73;0.20;;;17.30;99.90;;;;;;4880829;29;20041;-66
2022/07/11 10:11:20;;;;;;;0.30;0.20;;;17.30;99.90;;;;;;4879663;29;20055;-66
2022/07/11 10:13:48;;;;;;;0.30;0.10;;;17.30;99.90;;;;;;4880829;29;20052;-65
2022/07/11 10:16:35;;;;;;;1.27;0.10;;;17.30;99.90;;;;;;4880637;29;20053;-66
2022/07/11 10:19:26;;;;;;;1.27;0.20;;;17.30;99.90;;;;;;4880886;29;20045;-67
2022/07/11 10:22:06;;;;;;;0.20;0.10;;;17.30;99.90;;;;;;4879582;29;20549;-66
2022/07/11 10:24:47;;;;;;;0.20;0.10;;;17.30;99.90;;;;;;4880567;29;20064;-66
2022/07/11 10:27:53;;;;;;;0.73;0.10;;;17.40;99.90;;;;;;4879301;29;20053;-65
2022/07/11 10:30:46;;;;;;;1.55;0.10;;;17.40;99.90;;;;;;4878901;29;20493;-65
2022/07/11 10:33:12;;;;;;;0.65;0.22;;;17.50;99.90;;;;;;4879138;29;20080;-66
2022/07/11 10:35:46;;;;;;;1.33;0.20;;;18.20;99.90;;;;;;4878441;29;20482;-66
2022/07/11 10:38:12;;;;;;;0.13;0.10;;;17.50;99.90;;;;;;4880395;29;20068;-66
2022/07/11 10:40:57;;;;;;;0.17;0.10;;;17.50;99.90;;;;;;4879543;29;20049;-66
2022/07/11 10:43:22;;;;;;;0.50;0.10;;;17.50;99.90;;;;;;4880013;29;20053;-65
2022/07/11 10:46:02;;;;;;;0.30;0.10;;;17.50;99.90;;;;;;4879995;29;20048;-67
2022/07/11 10:48:31;;;;;;;0.65;0.10;;;17.50;99.90;;;;;;4879760;29;20498;-65
2022/07/11 10:51:35;;;;;;;0.10;0.10;;;17.60;99.90;;;;;;4894375;29;20061;-66
2022/07/11 10:54:19;;;;;;;0.10;0.10;;;17.60;99.90;;;;;;4840692;29;20046;-66
2022/07/11 10:57:24;;;;;;;1.25;0.20;;;17.70;99.90;;;;;;5085383;27;20530;-65
2022/07/11 11:00:08;;;;;;;0.20;0.17;;;17.80;99.90;;;;;;5043413;28;20063;-66
2022/07/11 11:03:04;;;;;;;0.10;0.10;;;17.90;99.90;;;;;;5082390;28;20071;-65
2022/07/11 11:05:43;;;;;;;0.10;0.10;;;17.90;99.90;;;;;;5077587;28;20131;-66
2022/07/11 11:08:37;;;;;;;0.63;0.10;;;18.00;99.90;;;;;;5084698;28;20048;-66
2022/07/11 11:11:21;;;;;;;0.10;0.10;;;18.00;99.90;;;;;;5085420;28;20048;-66
2022/07/11 11:14:15;;;;;;;0.20;0.15;;;18.00;99.90;;;;;;5081595;28;20048;-67
2022/07/11 11:16:42;;;;;;;0.20;0.10;;;17.80;99.90;;;;;;5081568;28;20856;-66
2022/07/11 11:19:28;;;;;;;0.10;0.10;;;18.10;99.90;;;;;;5085403;28;20052;-66
2022/07/11 11:22:02;;;;;;;0.43;0.10;;;18.10;99.90;;;;;;5079993;28;20498;-66
2022/07/11 11:24:27;;;;;;;0.10;0.10;;;18.10;99.90;;;;;;5082799;28;20119;-66
2022/07/11 11:26:53;;;;;;;0.45;0.10;;;18.10;99.90;;;;;;5083560;28;20127;-67
2022/07/11 11:29:29;;;;;;;0.43;0.20;;;18.10;99.90;;;;;;5082633;28;20048;-67
2022/07/11 11:31:58;;;;;;;0.90;0.17;;;18.10;99.90;;;;;;5081222;28;20079;-67
2022/07/11 11:34:24;;;;;;;0.28;0.20;;;18.00;99.90;;;;;;5083731;28;20902;-67
2022/07/11 11:36:59;;;;;;;0.20;0.20;;;18.00;99.90;;;;;;5081187;28;20123;-66
2022/07/11 11:39:32;;;;;;;0.77;0.20;;;18.00;99.90;;;;;;5083598;28;20040;-66
2022/07/11 11:42:02;;;;;;;;;;;18.00;99.90;;;;;;5086550;28;20149;-66
2022/07/11 11:44:28;;;;;;;1.05;0.20;;;18.00;99.90;;;;;;5086326;28;20038;-66
2022/07/11 11:46:53;;;;;;;0.10;0.10;;;18.10;99.90;;;;;;5085347;28;20136;-66
2022/07/11 11:49:19;;;;;;;0.20;0.20;;;18.10;99.90;;;;;;5086799;28;20149;-66
2022/07/11 11:51:46;;;;;;;0.65;0.20;;;18.10;99.90;;;;;;5083487;28;20139;-67
2022/07/11 11:54:21;;;;;;;0.40;0.10;;;17.50;99.90;;;;;;5084097;28;20048;-67
2022/07/11 11:56:47;;;;;;;0.73;0.20;;;18.20;99.90;;;;;;5080225;28;20443;-65
2022/07/11 11:59:15;;;;;;;0.70;0.20;;;18.30;99.90;;;;;;5088606;28;20051;-65
2022/07/11 12:01:43;;;;;;;0.40;0.20;;;18.30;99.90;;;;;;5088833;28;20237;-66
2022/07/11 12:04:11;;;;;;;0.80;0.20;;;18.30;99.90;;;;;;5088234;28;20049;-65
2022/07/11 12:06:46;;;;;;;0.60;0.20;;;18.30;99.90;;;;;;5084661;28;20044;-65
2022/07/11 12:09:22;;;;;;;1.00;0.10;;;18.30;99.90;;;;;;5074264;28;20059;-65
2022/07/11 12:12:43;;;;;;;0.13;0.13;;;18.40;99.90;;;;;;5073519;28;20079;-65
2022/07/11 12:14:38;;;;;;;0.10;0.10;;;18.40;99.90;;;;;;5074568;28;20087;-66
2022/07/11 12:17:04;;;;;;;0.73;0.13;;;18.50;99.90;;;;;;5071526;28;20087;-65
2022/07/11 12:19:34;;;;;;;0.77;0.20;;;18.50;99.90;;;;;;5074359;28;20065;-65
2022/07/11 12:22:04;;;;;;;0.30;0.13;;;18.50;99.90;;;;;;5075469;28;20047;-65
2022/07/11 12:24:30;;;;;;;0.50;0.20;;;18.60;99.90;;;;;;5075270;28;20041;-65
2022/07/11 12:26:57;;;;;;;0.85;0.13;;;18.60;99.90;;;;;;5075273;28;20049;-65
2022/07/11 12:29:24;;;;;;;0.63;0.10;;;18.60;99.90;;;;;;5075058;28;20054;-65
2022/07/11 12:31:54;;;;;;;0.28;0.13;;;18.70;99.90;;;;;;5074953;28;20040;-65
2022/07/11 12:34:22;;;;;;;0.17;0.17;;;18.70;99.90;;;;;;5075514;28;20043;-65
2022/07/11 12:36:48;;;;;;;1.80;0.20;;;18.70;99.90;;;;;;5074060;28;20118;-65
2022/07/11 12:39:29;;;;;;;0.45;0.20;;;18.70;99.90;;;;;;5075184;28;20062;-65
2022/07/11 12:41:56;;;;;;;0.15;0.10;;;18.80;99.90;;;;;;5073626;28;20135;-65
2022/07/11 12:47:12;;;;;;;0.30;0.20;;;18.70;99.90;;;;;;5072460;28;20174;-65
2022/07/11 12:49:44;;;;;;;0.22;0.20;;;18.70;99.90;;;;;;5073872;28;20541;-65
2022/07/11 12:52:13;;;;;;;2.00;0.20;;;18.70;99.90;;;;;;5072973;28;20040;-65
2022/07/11 12:54:40;;;;;;;0.47;0.20;;;18.70;99.90;;;;;;5074325;28;20528;-65
2022/07/11 12:57:10;;;;;;;0.20;0.10;;;18.70;99.90;;;;;;5074868;28;20088;-65
2022/07/11 12:59:40;;;;;;;1.02;0.13;;;18.80;99.90;;;;;;5074769;28;20137;-65
2022/07/11 13:02:10;;;;;;;1.08;0.30;;;18.80;99.90;;;;;;5071815;28;20141;-65